createdAt,value
2017-12-11T05:45:09.188Z,0.20
2017-12-11T05:48:11.105Z,0.20
2017-12-11T05:51:13.126Z,0.20
2017-12-11T05:54:15.082Z,0.20
2017-12-11T05:57:17.828Z,0.30
2017-12-11T06:00:19.777Z,0.20
2017-12-11T06:03:22.514Z,0.30
2017-12-11T06:06:24.461Z,0.30
2017-12-11T06:09:27.184Z,0.20
2017-12-11T06:12:29.335Z,0.20
2017-12-11T06:15:32.055Z,0.20
2017-12-11T06:18:33.988Z,0.20
2017-12-11T06:21:35.941Z,0.20
2017-12-11T06:24:37.863Z,0.20
2017-12-11T06:27:39.904Z,0.20
2017-12-11T06:30:41.858Z,0.10
2017-12-11T06:33:44.605Z,0.00
2017-12-11T06:36:46.532Z,-0.10
2017-12-11T07:39:47.696Z,0.20
2017-12-11T07:42:49.648Z,0.30
2017-12-11T07:45:51.618Z,0.30
2017-12-11T07:48:53.765Z,0.30
2017-12-11T07:51:56.542Z,0.20
2017-12-11T07:54:58.467Z,0.20
2017-12-11T07:58:00.436Z,0.20
2017-12-11T08:01:03.151Z,0.30
2017-12-11T08:04:05.134Z,0.20
2017-12-11T08:07:07.089Z,0.30
2017-12-11T08:10:09.066Z,0.30
2017-12-11T08:13:11.012Z,0.30
2017-12-11T08:16:12.984Z,0.30
2017-12-11T08:19:14.929Z,0.20
2017-12-11T08:22:17.729Z,0.20
2017-12-11T08:25:20.438Z,0.20
2017-12-11T08:28:23.170Z,0.20
2017-12-11T08:31:25.115Z,0.20
2017-12-11T08:34:27.984Z,0.30
2017-12-11T08:37:29.924Z,0.30
2017-12-11T08:40:31.918Z,0.30
2017-12-11T08:43:33.865Z,0.30
2017-12-11T08:46:36.616Z,0.40
2017-12-11T08:49:38.550Z,0.40
2017-12-11T08:52:41.278Z,0.40
2017-12-11T08:55:43.213Z,0.40
2017-12-11T08:58:45.228Z,0.40
2017-12-11T09:01:47.940Z,0.40
2017-12-11T09:04:50.017Z,0.40
2017-12-11T09:07:52.711Z,0.40
2017-12-11T09:10:55.489Z,0.50
2017-12-11T09:13:57.427Z,0.50
2017-12-11T09:16:59.414Z,0.50
2017-12-11T09:20:01.390Z,0.50
2017-12-11T09:23:03.389Z,0.60
2017-12-11T09:26:05.348Z,0.70
2017-12-11T09:29:07.420Z,0.80
2017-12-11T09:32:10.165Z,0.90
2017-12-11T09:35:12.154Z,0.90
2017-12-11T09:38:14.180Z,1.00
2017-12-11T09:41:16.931Z,0.90
2017-12-11T09:44:18.876Z,0.90
2017-12-11T09:47:20.901Z,0.90
2017-12-11T09:50:22.868Z,0.90
2017-12-11T09:53:24.842Z,0.90
2017-12-11T09:56:26.823Z,1.00
2017-12-11T09:59:29.566Z,1.00
2017-12-11T10:02:31.527Z,1.00
2017-12-11T10:05:33.514Z,1.10
2017-12-11T10:08:35.458Z,1.00
2017-12-11T10:11:38.219Z,0.90
2017-12-11T10:14:40.919Z,0.90
2017-12-11T10:17:42.904Z,0.90
2017-12-11T10:20:44.851Z,0.90
2017-12-11T10:23:46.822Z,0.90
2017-12-11T10:26:48.775Z,0.90
2017-12-11T10:29:50.744Z,0.90
2017-12-11T10:32:52.685Z,1.00
2017-12-11T10:35:54.719Z,1.00
2017-12-11T10:38:56.922Z,1.00
2017-12-11T10:41:58.940Z,1.00
2017-12-11T10:45:00.913Z,1.00
2017-12-11T10:48:02.908Z,1.00
2017-12-11T10:51:05.062Z,0.90
2017-12-11T10:54:07.059Z,0.90
2017-12-11T10:57:09.570Z,0.80
2017-12-11T11:00:11.726Z,0.80
2017-12-11T11:03:14.463Z,0.80
2017-12-11T11:06:16.464Z,0.80
2017-12-11T11:09:18.418Z,0.80
2017-12-11T11:12:20.412Z,0.80
2017-12-11T11:15:23.431Z,0.80
2017-12-11T11:18:25.671Z,0.80
2017-12-11T11:21:28.423Z,0.90
2017-12-11T11:24:30.970Z,0.80
2017-12-11T11:27:33.045Z,0.90
2017-12-11T11:30:35.830Z,0.80
2017-12-11T11:33:38.148Z,0.80
2017-12-11T11:36:40.411Z,0.80
2017-12-11T11:39:42.403Z,0.80
2017-12-11T11:42:44.398Z,0.80
2017-12-11T11:45:46.322Z,0.80
2017-12-11T11:48:48.482Z,0.80
2017-12-11T11:51:50.432Z,0.90
2017-12-11T11:54:53.551Z,0.90
2017-12-11T11:57:55.517Z,0.90
2017-12-11T12:00:57.469Z,1.00
2017-12-11T12:03:59.414Z,1.00
2017-12-11T12:07:02.281Z,1.00
2017-12-11T12:10:04.215Z,0.90
2017-12-11T12:13:06.168Z,1.00
2017-12-11T12:16:08.261Z,1.00
2017-12-11T12:19:11.269Z,1.00
2017-12-11T12:22:13.984Z,1.10
2017-12-11T12:25:15.962Z,1.00
2017-12-11T12:28:17.921Z,1.10
2017-12-11T12:31:19.886Z,1.10
2017-12-11T12:34:21.985Z,1.10
2017-12-11T12:37:23.952Z,1.10
2017-12-11T12:40:25.885Z,1.20
2017-12-11T12:43:27.837Z,1.20
2017-12-11T12:46:29.873Z,1.10
2017-12-11T12:49:31.864Z,1.10
2017-12-11T12:52:33.833Z,1.10
2017-12-11T12:55:36.090Z,1.10
2017-12-11T12:58:38.793Z,1.10
2017-12-11T13:01:41.522Z,1.10
2017-12-11T13:04:43.441Z,1.10
2017-12-11T13:07:45.422Z,1.10
2017-12-11T13:10:47.382Z,1.20
2017-12-11T13:13:50.641Z,1.10
2017-12-11T13:16:52.589Z,1.20
2017-12-11T13:19:54.562Z,1.10
2017-12-11T13:22:56.516Z,1.10
2017-12-11T13:25:58.512Z,1.10
2017-12-11T13:29:00.562Z,1.10
2017-12-11T13:32:03.297Z,1.00
2017-12-11T13:35:05.249Z,1.00
2017-12-11T13:38:08.118Z,1.00
2017-12-11T13:41:10.109Z,1.00
2017-12-11T13:44:12.834Z,1.10
2017-12-11T13:47:15.650Z,1.10
2017-12-11T13:50:18.396Z,1.10
2017-12-11T13:53:20.354Z,1.10
2017-12-11T13:56:22.353Z,1.10
2017-12-11T13:59:24.306Z,1.00
2017-12-11T14:02:26.254Z,0.90
2017-12-11T14:05:28.186Z,0.90
2017-12-11T14:08:30.155Z,0.80
2017-12-11T14:11:32.154Z,0.80
2017-12-11T14:14:34.102Z,0.80
2017-12-11T14:17:36.813Z,0.70
2017-12-11T14:20:40.423Z,0.70
2017-12-11T14:23:43.429Z,0.70
2017-12-11T14:26:46.340Z,0.70
2017-12-11T14:29:49.056Z,0.60
2017-12-11T14:32:51.012Z,0.60
2017-12-11T14:35:53.717Z,0.60
2017-12-11T14:38:56.514Z,0.60
2017-12-11T14:41:59.264Z,0.60
2017-12-11T14:45:01.249Z,0.50
2017-12-11T14:48:03.246Z,0.60
2017-12-11T14:51:05.249Z,0.50
2017-12-11T14:54:07.196Z,0.50
2017-12-11T14:57:09.155Z,0.50
2017-12-11T15:00:11.101Z,0.50
2017-12-11T15:03:13.073Z,0.50
2017-12-11T15:06:15.003Z,0.40
2017-12-11T15:09:16.978Z,0.40
2017-12-11T15:12:18.933Z,0.40
2017-12-11T15:15:20.902Z,0.30
2017-12-11T15:18:22.853Z,0.30
2017-12-11T15:21:24.813Z,0.30
2017-12-11T15:24:26.750Z,0.40
2017-12-11T15:27:28.824Z,0.30
2017-12-11T15:30:30.754Z,0.30
2017-12-11T15:33:32.734Z,0.30
2017-12-11T15:36:35.465Z,0.30
2017-12-11T15:39:37.420Z,0.30
2017-12-11T15:42:40.101Z,0.30
2017-12-11T15:45:42.083Z,0.30
2017-12-11T15:48:44.054Z,0.30
2017-12-11T15:51:46.050Z,0.40
2017-12-11T15:54:48.000Z,0.40
2017-12-11T15:57:49.954Z,0.40
2017-12-11T16:00:51.908Z,0.40
2017-12-11T16:03:54.637Z,0.40
2017-12-11T16:06:56.757Z,0.40
2017-12-11T16:09:58.705Z,0.30
2017-12-11T16:13:00.646Z,0.40
2017-12-11T16:16:03.540Z,0.40
2017-12-11T16:19:05.474Z,0.40
2017-12-11T16:22:07.442Z,0.40
2017-12-11T16:25:09.482Z,0.40
2017-12-11T16:28:11.457Z,0.50
2017-12-11T16:31:13.416Z,0.50
2017-12-11T16:34:15.409Z,0.50
2017-12-11T16:37:17.353Z,0.50
2017-12-11T16:40:19.372Z,0.50
2017-12-11T16:43:21.403Z,0.50
2017-12-11T16:46:24.117Z,0.60
2017-12-11T16:49:27.793Z,0.60
2017-12-11T16:52:29.794Z,0.60
2017-12-11T16:55:31.735Z,0.60
2017-12-11T16:58:33.787Z,0.60
2017-12-11T17:01:36.625Z,0.60
2017-12-11T17:04:38.621Z,0.60
2017-12-11T17:07:40.590Z,0.60
2017-12-11T17:10:42.560Z,0.60
2017-12-11T17:13:44.530Z,0.60
2017-12-11T17:16:46.509Z,0.70
2017-12-11T17:19:49.797Z,0.70
2017-12-11T17:22:51.753Z,0.70
2017-12-11T17:25:54.713Z,0.70
2017-12-11T17:28:56.681Z,0.70
2017-12-11T17:31:59.390Z,0.70
2017-12-11T17:35:02.130Z,0.70
2017-12-11T17:38:04.161Z,0.70
2017-12-11T17:41:06.917Z,0.70
2017-12-11T17:44:08.848Z,0.70
2017-12-11T17:47:11.594Z,0.70
2017-12-11T17:50:13.526Z,0.70
2017-12-11T17:53:15.493Z,0.70
2017-12-11T17:56:17.425Z,0.70
2017-12-11T17:59:19.371Z,0.70
2017-12-11T18:02:22.134Z,0.70
2017-12-11T18:05:24.120Z,0.70
2017-12-11T18:08:26.094Z,0.70
2017-12-11T18:11:28.065Z,0.70
2017-12-11T18:14:30.008Z,0.80
2017-12-11T18:17:32.726Z,0.80
2017-12-11T18:20:35.494Z,0.80
2017-12-11T18:23:37.460Z,0.70
2017-12-11T18:26:39.401Z,0.80
2017-12-11T18:29:41.378Z,0.80
2017-12-11T18:32:43.322Z,0.80
2017-12-11T18:35:45.305Z,0.80
2017-12-11T18:38:48.036Z,0.80
2017-12-11T18:41:50.786Z,0.70
2017-12-11T18:44:52.856Z,0.70
2017-12-11T18:47:54.845Z,0.70
2017-12-11T18:50:56.956Z,0.70
2017-12-11T18:53:58.942Z,0.70
2017-12-11T18:57:00.870Z,0.70
2017-12-11T19:00:02.837Z,0.70
2017-12-11T19:03:05.532Z,0.70
2017-12-11T19:06:08.381Z,0.70
2017-12-11T19:09:10.313Z,0.70
2017-12-11T19:12:13.053Z,0.70
2017-12-11T19:15:15.018Z,0.70
2017-12-11T19:18:16.985Z,0.70
2017-12-11T19:21:19.714Z,0.70
2017-12-11T19:24:21.699Z,0.70
2017-12-11T19:27:24.349Z,0.70
2017-12-11T19:30:26.419Z,0.70
2017-12-11T19:33:28.472Z,0.80
2017-12-11T19:36:30.422Z,0.80
2017-12-11T19:39:33.113Z,0.80
2017-12-11T19:42:35.841Z,0.80
2017-12-11T19:45:37.768Z,0.80
2017-12-11T19:48:39.923Z,0.80
2017-12-11T19:51:41.841Z,0.80
2017-12-11T19:54:43.806Z,0.80
2017-12-11T19:57:45.739Z,0.80
2017-12-11T20:00:48.616Z,0.80
2017-12-11T20:03:50.710Z,0.80
2017-12-11T20:06:52.950Z,0.80
2017-12-11T20:09:54.882Z,0.90
2017-12-11T20:12:56.870Z,0.90
2017-12-11T20:15:58.790Z,0.90
2017-12-11T20:19:00.778Z,0.90
2017-12-11T20:22:02.851Z,0.90
2017-12-11T20:25:05.136Z,0.90
2017-12-11T20:28:07.604Z,0.90
2017-12-11T20:31:09.758Z,0.90
2017-12-11T20:34:11.777Z,0.90
2017-12-11T20:37:14.578Z,0.90
2017-12-11T20:40:17.276Z,0.90
2017-12-11T20:43:19.774Z,0.90
2017-12-11T20:46:22.471Z,0.90
2017-12-11T20:49:24.793Z,0.90
2017-12-11T20:52:26.881Z,1.00
2017-12-11T20:55:28.865Z,1.00
2017-12-11T20:58:30.932Z,1.00
2017-12-11T21:01:33.658Z,1.00
